sensor_id;sensor_type;location;lat;lon;timestamp;pressure;altitude;pressure_sealevel;temperature;humidity
28027;BME280;15344;52.342;-1.290;2023-02-01T00:00:14;100878.82;;;6.56;95.16
28027;BME280;15344;52.342;-1.290;2023-02-01T00:02:39;100864.57;;;7.04;91.33
28027;BME280;15344;52.342;-1.290;2023-02-01T00:05:06;100863.71;;;6.66;93.11
28027;BME280;15344;52.342;-1.290;2023-02-01T00:07:31;100873.56;;;6.24;93.51
28027;BME280;15344;52.342;-1.290;2023-02-01T00:09:56;100872.23;;;6.59;96.25
28027;BME280;15344;52.342;-1.290;2023-02-01T00:12:21;100874.61;;;6.14;97.54
28027;BME280;15344;52.342;-1.290;2023-02-01T00:14:47;100875.46;;;6.88;93.15
28027;BME280;15344;52.342;-1.290;2023-02-01T00:17:12;100872.07;;;6.36;95.85
28027;BME280;15344;52.342;-1.290;2023-02-01T00:19:38;100869.78;;;6.34;96.87
28027;BME280;15344;52.342;-1.290;2023-02-01T00:22:03;100879.21;;;6.38;96.65
28027;BME280;15344;52.342;-1.290;2023-02-01T00:24:29;100880.85;;;6.38;96.49
28027;BME280;15344;52.342;-1.290;2023-02-01T00:26:54;100870.45;;;6.06;98.49
28027;BME280;15344;52.342;-1.290;2023-02-01T00:29:20;100878.76;;;6.01;97.37
28027;BME280;15344;52.342;-1.290;2023-02-01T00:31:46;100875.03;;;6.49;97.58
28027;BME280;15344;52.342;-1.290;2023-02-01T00:34:13;100876.51;;;6.31;96.02
28027;BME280;15344;52.342;-1.290;2023-02-01T00:36:36;100872.04;;;6.68;95.82
28027;BME280;15344;52.342;-1.290;2023-02-01T00:39:01;100875.00;;;7.34;91.28
28027;BME280;15344;52.342;-1.290;2023-02-01T00:41:27;100872.85;;;6.57;94.10
28027;BME280;15344;52.342;-1.290;2023-02-01T00:43:52;100870.11;;;7.15;93.39
28027;BME280;15344;52.342;-1.290;2023-02-01T00:46:19;100867.46;;;5.97;96.91
28027;BME280;15344;52.342;-1.290;2023-02-01T00:48:44;100870.85;;;6.95;94.39
28027;BME280;15344;52.342;-1.290;2023-02-01T00:51:10;100873.67;;;7.08;91.25
28027;BME280;15344;52.342;-1.290;2023-02-01T00:53:35;100873.85;;;6.93;93.66
28027;BME280;15344;52.342;-1.290;2023-02-01T00:56:01;100863.81;;;6.66;94.71
28027;BME280;15344;52.342;-1.290;2023-02-01T00:58:26;100869.17;;;6.39;96.77
28027;BME280;15344;52.342;-1.290;2023-02-01T01:01:00;100864.92;;;6.50;96.37
28027;BME280;15344;52.342;-1.290;2023-02-01T01:03:17;100868.47;;;6.78;93.74
28027;BME280;15344;52.342;-1.290;2023-02-01T01:05:43;100874.92;;;7.10;93.92
28027;BME280;15344;52.342;-1.290;2023-02-01T01:08:08;100876.32;;;7.39;92.11
28027;BME280;15344;52.342;-1.290;2023-02-01T01:10:33;100877.94;;;6.87;94.62
28027;BME280;15344;52.342;-1.290;2023-02-01T01:12:59;100879.95;;;6.50;93.87
28027;BME280;15344;52.342;-1.290;2023-02-01T01:15:30;100875.34;;;6.20;94.60
28027;BME280;15344;52.342;-1.290;2023-02-01T01:17:50;100876.66;;;7.60;91.20
28027;BME280;15344;52.342;-1.290;2023-02-01T01:20:16;100869.25;;;6.32;94.01
28027;BME280;15344;52.342;-1.290;2023-02-01T01:22:41;100874.77;;;6.44;93.95
28027;BME280;15344;52.342;-1.290;2023-02-01T01:25:07;100863.90;;;6.95;93.23
28027;BME280;15344;52.342;-1.290;2023-02-01T01:27:32;100867.83;;;7.34;92.79
28027;BME280;15344;52.342;-1.290;2023-02-01T01:29:58;100869.37;;;6.80;94.14
28027;BME280;15344;52.342;-1.290;2023-02-01T01:32:23;100867.94;;;6.46;95.07
28027;BME280;15344;52.342;-1.290;2023-02-01T01:34:48;100871.09;;;7.03;93.39
28027;BME280;15344;52.342;-1.290;2023-02-01T01:37:14;100868.43;;;6.66;94.61
28027;BME280;15344;52.342;-1.290;2023-02-01T01:39:39;100864.60;;;6.17;95.49
28027;BME280;15344;52.342;-1.290;2023-02-01T01:42:05;100864.66;;;6.92;92.82
28027;BME280;15344;52.342;-1.290;2023-02-01T01:46:56;100869.84;;;5.67;100.00
28027;BME280;15344;52.342;-1.290;2023-02-01T01:49:24;100863.89;;;6.43;96.69
28027;BME280;15344;52.342;-1.290;2023-02-01T01:51:50;100858.55;;;5.74;97.86
28027;BME280;15344;52.342;-1.290;2023-02-01T01:54:16;100849.17;;;7.23;92.28
28027;BME280;15344;52.342;-1.290;2023-02-01T01:56:39;100855.40;;;6.66;93.79
28027;BME280;15344;52.342;-1.290;2023-02-01T01:59:04;100853.77;;;6.54;93.87
28027;BME280;15344;52.342;-1.290;2023-02-01T02:01:29;100862.40;;;7.10;93.49
28027;BME280;15344;52.342;-1.290;2023-02-01T02:03:55;100865.26;;;6.51;94.88
28027;BME280;15344;52.342;-1.290;2023-02-01T02:06:27;100865.72;;;6.92;93.40
28027;BME280;15344;52.342;-1.290;2023-02-01T02:08:46;100861.01;;;6.89;93.87
28027;BME280;15344;52.342;-1.290;2023-02-01T02:11:12;100858.10;;;7.10;93.00
28027;BME280;15344;52.342;-1.290;2023-02-01T02:13:40;100860.91;;;7.56;91.00
28027;BME280;15344;52.342;-1.290;2023-02-01T02:18:34;100850.71;;;6.66;93.60
28027;BME280;15344;52.342;-1.290;2023-02-01T02:21:03;100857.44;;;6.44;97.64
28027;BME280;15344;52.342;-1.290;2023-02-01T02:23:29;100855.76;;;6.45;95.05
28027;BME280;15344;52.342;-1.290;2023-02-01T02:25:54;100858.05;;;7.19;94.53
28027;BME280;15344;52.342;-1.290;2023-02-01T02:30:48;100848.45;;;7.02;94.94
28027;BME280;15344;52.342;-1.290;2023-02-01T02:35:30;100850.03;;;6.98;93.87
28027;BME280;15344;52.342;-1.290;2023-02-01T02:37:57;100845.14;;;6.40;96.06
28027;BME280;15344;52.342;-1.290;2023-02-01T02:40:22;100837.09;;;7.78;92.57
28027;BME280;15344;52.342;-1.290;2023-02-01T02:42:48;100837.25;;;7.34;92.26
28027;BME280;15344;52.342;-1.290;2023-02-01T02:45:12;100830.77;;;7.10;95.15
28027;BME280;15344;52.342;-1.290;2023-02-01T02:47:39;100822.01;;;7.41;91.96
28027;BME280;15344;52.342;-1.290;2023-02-01T02:50:09;100817.07;;;6.46;95.98
28027;BME280;15344;52.342;-1.290;2023-02-01T02:52:27;100810.84;;;6.46;96.85
28027;BME280;15344;52.342;-1.290;2023-02-01T02:54:52;100811.41;;;6.88;96.09
28027;BME280;15344;52.342;-1.290;2023-02-01T02:57:20;100810.21;;;6.28;100.00
28027;BME280;15344;52.342;-1.290;2023-02-01T02:59:44;100813.55;;;5.99;100.00
28027;BME280;15344;52.342;-1.290;2023-02-01T03:02:08;100810.01;;;6.13;100.00
28027;BME280;15344;52.342;-1.290;2023-02-01T03:04:33;100810.29;;;6.05;100.00
28027;BME280;15344;52.342;-1.290;2023-02-01T03:09:27;100806.45;;;6.43;100.00
28027;BME280;15344;52.342;-1.290;2023-02-01T03:11:51;100814.01;;;6.39;99.13
28027;BME280;15344;52.342;-1.290;2023-02-01T03:14:16;100817.62;;;6.86;98.71
28027;BME280;15344;52.342;-1.290;2023-02-01T03:16:43;100818.13;;;6.62;99.51
28027;BME280;15344;52.342;-1.290;2023-02-01T03:19:10;100822.36;;;6.76;98.84
28027;BME280;15344;52.342;-1.290;2023-02-01T03:21:35;100824.52;;;7.00;95.96
28027;BME280;15344;52.342;-1.290;2023-02-01T03:24:02;100828.46;;;7.05;96.03
28027;BME280;15344;52.342;-1.290;2023-02-01T03:26:24;100833.23;;;7.11;97.18
28027;BME280;15344;52.342;-1.290;2023-02-01T03:28:52;100838.03;;;6.26;100.00
28027;BME280;15344;52.342;-1.290;2023-02-01T03:31:19;100843.65;;;5.99;100.00
28027;BME280;15344;52.342;-1.290;2023-02-01T03:33:39;100836.28;;;6.13;100.00
28027;BME280;15344;52.342;-1.290;2023-02-01T03:36:13;100826.12;;;7.16;97.39
28027;BME280;15344;52.342;-1.290;2023-02-01T03:38:33;100823.59;;;7.06;95.73
28027;BME280;15344;52.342;-1.290;2023-02-01T03:40:58;100828.91;;;7.15;94.51
28027;BME280;15344;52.342;-1.290;2023-02-01T03:43:22;100827.29;;;7.66;92.18
28027;BME280;15344;52.342;-1.290;2023-02-01T03:45:52;100821.63;;;7.50;92.13
28027;BME280;15344;52.342;-1.290;2023-02-01T03:48:12;100820.43;;;6.72;95.68
28027;BME280;15344;52.342;-1.290;2023-02-01T03:50:39;100825.42;;;7.10;96.74
28027;BME280;15344;52.342;-1.290;2023-02-01T03:53:06;100836.75;;;6.80;95.23
28027;BME280;15344;52.342;-1.290;2023-02-01T03:55:30;100831.09;;;7.52;92.51
28027;BME280;15344;52.342;-1.290;2023-02-01T03:57:59;100830.01;;;7.73;90.98
28027;BME280;15344;52.342;-1.290;2023-02-01T04:00:23;100833.26;;;7.47;91.20
28027;BME280;15344;52.342;-1.290;2023-02-01T04:02:45;100835.34;;;7.20;93.42
28027;BME280;15344;52.342;-1.290;2023-02-01T04:05:10;100831.46;;;7.45;91.46
28027;BME280;15344;52.342;-1.290;2023-02-01T04:07:36;100830.55;;;7.96;89.13
28027;BME280;15344;52.342;-1.290;2023-02-01T04:10:01;100832.82;;;7.95;88.82
28027;BME280;15344;52.342;-1.290;2023-02-01T04:12:27;100833.57;;;7.55;89.23
28027;BME280;15344;52.342;-1.290;2023-02-01T04:14:52;100828.20;;;7.53;89.83
28027;BME280;15344;52.342;-1.290;2023-02-01T04:17:18;100824.29;;;7.25;91.94
28027;BME280;15344;52.342;-1.290;2023-02-01T04:19:44;100824.13;;;7.52;90.55
28027;BME280;15344;52.342;-1.290;2023-02-01T04:22:09;100817.32;;;7.94;88.72
28027;BME280;15344;52.342;-1.290;2023-02-01T04:24:35;100821.82;;;8.00;87.29
28027;BME280;15344;52.342;-1.290;2023-02-01T04:27:00;100815.92;;;7.89;87.57
28027;BME280;15344;52.342;-1.290;2023-02-01T04:29:26;100818.11;;;7.57;88.64
28027;BME280;15344;52.342;-1.290;2023-02-01T04:31:51;100822.35;;;7.72;88.31
28027;BME280;15344;52.342;-1.290;2023-02-01T04:34:17;100820.03;;;7.30;90.31
28027;BME280;15344;52.342;-1.290;2023-02-01T04:36:43;100821.87;;;7.60;88.62
28027;BME280;15344;52.342;-1.290;2023-02-01T04:39:09;100817.79;;;8.11;86.43
28027;BME280;15344;52.342;-1.290;2023-02-01T04:41:33;100822.97;;;7.33;88.32
28027;BME280;15344;52.342;-1.290;2023-02-01T04:43:59;100826.58;;;6.65;93.31
28027;BME280;15344;52.342;-1.290;2023-02-01T04:46:29;100828.08;;;7.15;91.76
28027;BME280;15344;52.342;-1.290;2023-02-01T04:48:50;100831.02;;;7.58;92.17
28027;BME280;15344;52.342;-1.290;2023-02-01T04:51:15;100832.54;;;6.60;92.87
28027;BME280;15344;52.342;-1.290;2023-02-01T04:53:41;100839.15;;;7.78;88.97
28027;BME280;15344;52.342;-1.290;2023-02-01T04:56:08;100834.11;;;7.97;87.15
28027;BME280;15344;52.342;-1.290;2023-02-01T04:58:32;100832.70;;;7.85;87.36
28027;BME280;15344;52.342;-1.290;2023-02-01T05:00:58;100833.90;;;7.41;90.10
28027;BME280;15344;52.342;-1.290;2023-02-01T05:03:23;100829.73;;;7.54;89.73
28027;BME280;15344;52.342;-1.290;2023-02-01T05:05:49;100821.92;;;7.24;92.26
28027;BME280;15344;52.342;-1.290;2023-02-01T05:08:14;100822.42;;;7.31;91.46
28027;BME280;15344;52.342;-1.290;2023-02-01T05:10:40;100823.72;;;7.31;93.21
28027;BME280;15344;52.342;-1.290;2023-02-01T05:13:05;100829.12;;;7.11;91.71
28027;BME280;15344;52.342;-1.290;2023-02-01T05:15:31;100825.17;;;7.01;91.74
28027;BME280;15344;52.342;-1.290;2023-02-01T05:17:57;100828.88;;;7.33;90.37
28027;BME280;15344;52.342;-1.290;2023-02-01T05:20:22;100824.03;;;7.17;90.50
28027;BME280;15344;52.342;-1.290;2023-02-01T05:22:47;100820.60;;;7.33;92.78
28027;BME280;15344;52.342;-1.290;2023-02-01T05:25:13;100811.61;;;6.97;92.87
28027;BME280;15344;52.342;-1.290;2023-02-01T05:27:38;100811.77;;;7.09;91.65
28027;BME280;15344;52.342;-1.290;2023-02-01T05:30:05;100817.37;;;7.54;88.99
28027;BME280;15344;52.342;-1.290;2023-02-01T05:32:29;100814.13;;;7.30;91.13
28027;BME280;15344;52.342;-1.290;2023-02-01T05:34:54;100817.90;;;6.88;92.85
28027;BME280;15344;52.342;-1.290;2023-02-01T05:37:20;100812.80;;;7.39;90.85
28027;BME280;15344;52.342;-1.290;2023-02-01T05:39:45;100813.14;;;7.26;93.78
28027;BME280;15344;52.342;-1.290;2023-02-01T05:42:11;100811.47;;;6.53;95.61
28027;BME280;15344;52.342;-1.290;2023-02-01T05:44:37;100808.22;;;6.99;93.50
28027;BME280;15344;52.342;-1.290;2023-02-01T05:47:02;100813.44;;;7.21;91.95
28027;BME280;15344;52.342;-1.290;2023-02-01T05:49:28;100811.04;;;7.68;91.73
28027;BME280;15344;52.342;-1.290;2023-02-01T05:51:53;100818.34;;;6.94;93.48
28027;BME280;15344;52.342;-1.290;2023-02-01T05:54:19;100813.37;;;7.20;92.96
28027;BME280;15344;52.342;-1.290;2023-02-01T05:56:45;100811.72;;;7.05;92.11
28027;BME280;15344;52.342;-1.290;2023-02-01T05:59:10;100821.53;;;7.29;91.61
28027;BME280;15344;52.342;-1.290;2023-02-01T06:01:35;100822.86;;;6.76;94.22
28027;BME280;15344;52.342;-1.290;2023-02-01T06:04:01;100824.72;;;7.22;93.69
28027;BME280;15344;52.342;-1.290;2023-02-01T06:06:27;100828.09;;;6.31;96.85
28027;BME280;15344;52.342;-1.290;2023-02-01T06:08:52;100827.30;;;6.50;99.12
28027;BME280;15344;52.342;-1.290;2023-02-01T06:11:18;100825.80;;;6.70;98.09
28027;BME280;15344;52.342;-1.290;2023-02-01T06:13:43;100822.24;;;7.26;93.53
28027;BME280;15344;52.342;-1.290;2023-02-01T06:16:09;100823.27;;;7.24;91.24
28027;BME280;15344;52.342;-1.290;2023-02-01T06:18:35;100825.46;;;7.71;90.12
28027;BME280;15344;52.342;-1.290;2023-02-01T06:21:00;100825.45;;;8.29;87.15
28027;BME280;15344;52.342;-1.290;2023-02-01T06:23:25;100829.46;;;7.97;87.56
28027;BME280;15344;52.342;-1.290;2023-02-01T06:25:52;100831.93;;;7.43;92.40
28027;BME280;15344;52.342;-1.290;2023-02-01T06:28:16;100824.33;;;8.20;87.54
28027;BME280;15344;52.342;-1.290;2023-02-01T06:30:42;100830.34;;;7.53;88.06
28027;BME280;15344;52.342;-1.290;2023-02-01T06:33:08;100827.58;;;7.46;90.97
28027;BME280;15344;52.342;-1.290;2023-02-01T06:35:33;100834.04;;;7.95;88.76
28027;BME280;15344;52.342;-1.290;2023-02-01T06:37:59;100840.34;;;8.30;86.30
28027;BME280;15344;52.342;-1.290;2023-02-01T06:40:24;100845.53;;;8.20;87.01
28027;BME280;15344;52.342;-1.290;2023-02-01T06:42:49;100841.57;;;8.04;87.08
28027;BME280;15344;52.342;-1.290;2023-02-01T06:45:17;100827.39;;;7.91;86.33
28027;BME280;15344;52.342;-1.290;2023-02-01T06:47:40;100832.18;;;8.16;86.09
28027;BME280;15344;52.342;-1.290;2023-02-01T06:50:07;100832.72;;;8.16;87.36
28027;BME280;15344;52.342;-1.290;2023-02-01T06:52:31;100831.97;;;7.79;88.90
28027;BME280;15344;52.342;-1.290;2023-02-01T06:54:57;100830.04;;;7.84;87.36
28027;BME280;15344;52.342;-1.290;2023-02-01T06:57:23;100826.64;;;8.41;85.08
28027;BME280;15344;52.342;-1.290;2023-02-01T06:59:49;100829.72;;;8.10;87.39
28027;BME280;15344;52.342;-1.290;2023-02-01T07:02:14;100831.61;;;8.24;86.88
28027;BME280;15344;52.342;-1.290;2023-02-01T07:04:39;100839.16;;;6.86;92.71
28027;BME280;15344;52.342;-1.290;2023-02-01T07:07:05;100837.08;;;7.53;90.01
28027;BME280;15344;52.342;-1.290;2023-02-01T07:09:30;100836.43;;;7.57;90.15
28027;BME280;15344;52.342;-1.290;2023-02-01T07:11:56;100842.99;;;7.25;91.66
28027;BME280;15344;52.342;-1.290;2023-02-01T07:14:21;100838.35;;;6.54;94.61
28027;BME280;15344;52.342;-1.290;2023-02-01T07:16:47;100838.27;;;7.01;92.83
28027;BME280;15344;52.342;-1.290;2023-02-01T07:19:12;100838.76;;;6.78;94.07
28027;BME280;15344;52.342;-1.290;2023-02-01T07:21:38;100837.89;;;7.00;95.72
28027;BME280;15344;52.342;-1.290;2023-02-01T07:24:04;100840.67;;;7.05;93.83
28027;BME280;15344;52.342;-1.290;2023-02-01T07:26:29;100842.21;;;6.80;97.16
28027;BME280;15344;52.342;-1.290;2023-02-01T07:28:55;100836.26;;;7.16;95.94
28027;BME280;15344;52.342;-1.290;2023-02-01T07:31:20;100831.60;;;6.56;96.36
28027;BME280;15344;52.342;-1.290;2023-02-01T07:33:46;100833.97;;;6.42;98.26
28027;BME280;15344;52.342;-1.290;2023-02-01T07:36:13;100830.89;;;6.44;98.60
28027;BME280;15344;52.342;-1.290;2023-02-01T07:38:37;100828.48;;;6.62;99.31
28027;BME280;15344;52.342;-1.290;2023-02-01T07:41:04;100828.30;;;6.64;98.55
28027;BME280;15344;52.342;-1.290;2023-02-01T07:43:28;100820.33;;;6.28;99.79
28027;BME280;15344;52.342;-1.290;2023-02-01T07:45:54;100830.93;;;6.92;97.29
28027;BME280;15344;52.342;-1.290;2023-02-01T07:48:18;100831.97;;;7.31;93.94
28027;BME280;15344;52.342;-1.290;2023-02-01T07:50:44;100838.73;;;6.98;94.92
28027;BME280;15344;52.342;-1.290;2023-02-01T07:53:09;100836.84;;;6.90;96.16
28027;BME280;15344;52.342;-1.290;2023-02-01T07:55:38;100835.65;;;6.80;95.00
28027;BME280;15344;52.342;-1.290;2023-02-01T07:58:00;100844.93;;;7.01;96.42
28027;BME280;15344;52.342;-1.290;2023-02-01T08:00:26;100841.25;;;6.91;97.77
28027;BME280;15344;52.342;-1.290;2023-02-01T08:02:51;100847.26;;;6.64;97.65
28027;BME280;15344;52.342;-1.290;2023-02-01T08:05:16;100846.43;;;6.73;97.02
28027;BME280;15344;52.342;-1.290;2023-02-01T08:07:42;100850.67;;;6.92;97.14
28027;BME280;15344;52.342;-1.290;2023-02-01T08:10:08;100843.32;;;7.53;93.87
28027;BME280;15344;52.342;-1.290;2023-02-01T08:12:33;100843.28;;;7.78;91.76
28027;BME280;15344;52.342;-1.290;2023-02-01T08:14:58;100842.63;;;7.70;92.13
28027;BME280;15344;52.342;-1.290;2023-02-01T08:17:24;100848.34;;;8.02;90.85
28027;BME280;15344;52.342;-1.290;2023-02-01T08:19:49;100845.20;;;7.34;91.04
28027;BME280;15344;52.342;-1.290;2023-02-01T08:22:15;100846.99;;;7.81;90.87
28027;BME280;15344;52.342;-1.290;2023-02-01T08:24:40;100844.65;;;7.60;91.62
28027;BME280;15344;52.342;-1.290;2023-02-01T08:27:06;100840.86;;;8.15;89.77
28027;BME280;15344;52.342;-1.290;2023-02-01T08:29:31;100842.86;;;7.88;91.64
28027;BME280;15344;52.342;-1.290;2023-02-01T08:31:57;100842.70;;;8.17;90.63
28027;BME280;15344;52.342;-1.290;2023-02-01T08:34:22;100844.50;;;6.56;98.32
28027;BME280;15344;52.342;-1.290;2023-02-01T08:36:48;100849.18;;;7.36;95.09
28027;BME280;15344;52.342;-1.290;2023-02-01T08:39:14;100852.65;;;8.02;92.89
28027;BME280;15344;52.342;-1.290;2023-02-01T08:41:39;100859.02;;;6.98;96.85
28027;BME280;15344;52.342;-1.290;2023-02-01T08:44:04;100851.61;;;7.44;95.12
28027;BME280;15344;52.342;-1.290;2023-02-01T08:46:30;100851.83;;;7.52;95.08
28027;BME280;15344;52.342;-1.290;2023-02-01T08:48:56;100859.29;;;7.73;96.62
28027;BME280;15344;52.342;-1.290;2023-02-01T08:51:22;100863.77;;;7.95;93.03
28027;BME280;15344;52.342;-1.290;2023-02-01T08:53:47;100869.35;;;7.43;95.10
28027;BME280;15344;52.342;-1.290;2023-02-01T08:56:13;100867.77;;;8.63;91.41
28027;BME280;15344;52.342;-1.290;2023-02-01T08:58:37;100869.98;;;8.39;91.97
28027;BME280;15344;52.342;-1.290;2023-02-01T09:01:04;100870.71;;;8.76;89.01
28027;BME280;15344;52.342;-1.290;2023-02-01T09:03:29;100873.61;;;8.84;88.54
28027;BME280;15344;52.342;-1.290;2023-02-01T09:06:00;100872.59;;;8.82;88.94
28027;BME280;15344;52.342;-1.290;2023-02-01T09:08:19;100882.17;;;8.35;90.03
28027;BME280;15344;52.342;-1.290;2023-02-01T09:10:45;100885.93;;;9.16;88.49
28027;BME280;15344;52.342;-1.290;2023-02-01T09:13:10;100885.66;;;9.00;90.26
28027;BME280;15344;52.342;-1.290;2023-02-01T09:15:36;100887.26;;;9.21;87.40
28027;BME280;15344;52.342;-1.290;2023-02-01T09:18:01;100880.98;;;9.48;85.76
28027;BME280;15344;52.342;-1.290;2023-02-01T09:20:26;100873.65;;;7.98;90.91
28027;BME280;15344;52.342;-1.290;2023-02-01T09:22:52;100878.54;;;8.37;90.00
28027;BME280;15344;52.342;-1.290;2023-02-01T09:25:17;100885.46;;;7.89;94.10
28027;BME280;15344;52.342;-1.290;2023-02-01T09:27:42;100885.31;;;8.49;91.56
28027;BME280;15344;52.342;-1.290;2023-02-01T09:30:09;100889.51;;;8.42;91.12
28027;BME280;15344;52.342;-1.290;2023-02-01T09:32:33;100885.45;;;7.12;98.95
28027;BME280;15344;52.342;-1.290;2023-02-01T09:35:00;100884.62;;;8.29;93.80
28027;BME280;15344;52.342;-1.290;2023-02-01T09:37:25;100889.04;;;7.89;96.46
28027;BME280;15344;52.342;-1.290;2023-02-01T09:39:50;100887.57;;;8.02;95.50
28027;BME280;15344;52.342;-1.290;2023-02-01T09:42:25;100889.62;;;7.76;95.79
28027;BME280;15344;52.342;-1.290;2023-02-01T09:44:50;100895.77;;;9.09;91.30
28027;BME280;15344;52.342;-1.290;2023-02-01T09:47:12;100890.22;;;8.72;92.21
28027;BME280;15344;52.342;-1.290;2023-02-01T09:49:35;100894.48;;;9.01;90.27
28027;BME280;15344;52.342;-1.290;2023-02-01T09:51:59;100894.56;;;8.77;92.33
28027;BME280;15344;52.342;-1.290;2023-02-01T09:54:25;100894.41;;;8.40;93.91
28027;BME280;15344;52.342;-1.290;2023-02-01T09:56:51;100897.03;;;9.14;91.53
28027;BME280;15344;52.342;-1.290;2023-02-01T09:59:24;100891.60;;;8.86;90.88
28027;BME280;15344;52.342;-1.290;2023-02-01T10:01:39;100893.35;;;8.80;92.77
28027;BME280;15344;52.342;-1.290;2023-02-01T10:04:07;100897.20;;;9.38;90.92
28027;BME280;15344;52.342;-1.290;2023-02-01T10:06:42;100897.67;;;9.09;89.22
28027;BME280;15344;52.342;-1.290;2023-02-01T10:09:04;100889.63;;;8.75;91.87
28027;BME280;15344;52.342;-1.290;2023-02-01T10:11:27;100895.71;;;8.97;92.88
28027;BME280;15344;52.342;-1.290;2023-02-01T10:13:53;100899.45;;;9.30;91.57
28027;BME280;15344;52.342;-1.290;2023-02-01T10:16:19;100902.74;;;9.03;92.52
28027;BME280;15344;52.342;-1.290;2023-02-01T10:18:48;100897.89;;;9.54;90.62
28027;BME280;15344;52.342;-1.290;2023-02-01T10:21:08;100897.42;;;9.33;91.28
28027;BME280;15344;52.342;-1.290;2023-02-01T10:23:37;100904.52;;;9.21;91.85
28027;BME280;15344;52.342;-1.290;2023-02-01T10:25:55;100905.00;;;9.13;90.34
28027;BME280;15344;52.342;-1.290;2023-02-01T10:28:18;100905.41;;;8.74;93.87
28027;BME280;15344;52.342;-1.290;2023-02-01T10:30:46;100915.02;;;9.38;93.18
28027;BME280;15344;52.342;-1.290;2023-02-01T10:33:16;100913.88;;;9.18;92.66
28027;BME280;15344;52.342;-1.290;2023-02-01T10:35:36;100915.17;;;8.83;93.89
28027;BME280;15344;52.342;-1.290;2023-02-01T10:38:01;100915.45;;;9.86;89.56
28027;BME280;15344;52.342;-1.290;2023-02-01T10:40:26;100921.79;;;9.90;91.26
28027;BME280;15344;52.342;-1.290;2023-02-01T10:42:52;100912.05;;;10.48;87.89
28027;BME280;15344;52.342;-1.290;2023-02-01T10:45:19;100912.13;;;10.34;88.23
28027;BME280;15344;52.342;-1.290;2023-02-01T10:47:41;100921.57;;;9.89;89.29
28027;BME280;15344;52.342;-1.290;2023-02-01T10:50:17;100921.04;;;9.97;90.10
28027;BME280;15344;52.342;-1.290;2023-02-01T10:52:38;100915.02;;;10.31;87.58
28027;BME280;15344;52.342;-1.290;2023-02-01T10:54:59;100922.09;;;10.96;84.91
28027;BME280;15344;52.342;-1.290;2023-02-01T10:57:23;100920.96;;;11.04;83.35
28027;BME280;15344;52.342;-1.290;2023-02-01T10:59:48;100921.59;;;10.96;83.76
28027;BME280;15344;52.342;-1.290;2023-02-01T11:02:20;100926.58;;;10.79;82.51
28027;BME280;15344;52.342;-1.290;2023-02-01T11:04:38;100932.28;;;11.36;81.95
28027;BME280;15344;52.342;-1.290;2023-02-01T11:07:12;100939.62;;;11.01;81.91
28027;BME280;15344;52.342;-1.290;2023-02-01T11:09:29;100942.93;;;10.46;84.97
28027;BME280;15344;52.342;-1.290;2023-02-01T11:11:57;100941.60;;;10.35;84.80
28027;BME280;15344;52.342;-1.290;2023-02-01T11:14:26;100944.38;;;11.50;81.48
28027;BME280;15344;52.342;-1.290;2023-02-01T11:16:49;100952.35;;;11.46;79.91
28027;BME280;15344;52.342;-1.290;2023-02-01T11:19:15;100948.57;;;11.01;82.30
28027;BME280;15344;52.342;-1.290;2023-02-01T11:21:36;100954.26;;;10.84;83.18
28027;BME280;15344;52.342;-1.290;2023-02-01T11:24:03;100949.90;;;10.33;84.93
28027;BME280;15344;52.342;-1.290;2023-02-01T11:26:27;100952.55;;;10.78;83.89
28027;BME280;15344;52.342;-1.290;2023-02-01T11:28:56;100953.61;;;10.91;81.90
28027;BME280;15344;52.342;-1.290;2023-02-01T11:31:17;100948.64;;;10.75;83.68
28027;BME280;15344;52.342;-1.290;2023-02-01T11:33:48;100945.77;;;10.81;82.75
28027;BME280;15344;52.342;-1.290;2023-02-01T11:36:09;100943.93;;;10.99;84.54
28027;BME280;15344;52.342;-1.290;2023-02-01T11:38:34;100935.75;;;11.01;82.72
28027;BME280;15344;52.342;-1.290;2023-02-01T11:43:25;100928.74;;;10.97;84.56
28027;BME280;15344;52.342;-1.290;2023-02-01T11:45:55;100921.88;;;11.18;83.54
28027;BME280;15344;52.342;-1.290;2023-02-01T11:48:16;100925.91;;;10.87;83.76
28027;BME280;15344;52.342;-1.290;2023-02-01T11:50:46;100921.54;;;10.55;87.62
28027;BME280;15344;52.342;-1.290;2023-02-01T11:53:18;100920.85;;;10.80;85.80
28027;BME280;15344;52.342;-1.290;2023-02-01T11:55:44;100920.93;;;11.10;83.05
28027;BME280;15344;52.342;-1.290;2023-02-01T11:58:04;100918.42;;;10.99;84.14
28027;BME280;15344;52.342;-1.290;2023-02-01T12:00:34;100916.89;;;10.57;85.19
28027;BME280;15344;52.342;-1.290;2023-02-01T12:02:59;100915.68;;;10.81;85.18
28027;BME280;15344;52.342;-1.290;2023-02-01T12:05:24;100909.24;;;10.50;84.60
28027;BME280;15344;52.342;-1.290;2023-02-01T12:07:49;100914.15;;;10.92;85.90
28027;BME280;15344;52.342;-1.290;2023-02-01T12:10:15;100913.63;;;10.65;88.23
28027;BME280;15344;52.342;-1.290;2023-02-01T12:12:34;100913.71;;;11.06;85.02
28027;BME280;15344;52.342;-1.290;2023-02-01T12:15:07;100909.03;;;10.56;84.24
28027;BME280;15344;52.342;-1.290;2023-02-01T12:19:59;100907.78;;;10.23;88.65
28027;BME280;15344;52.342;-1.290;2023-02-01T12:22:22;100905.61;;;10.13;88.72
28027;BME280;15344;52.342;-1.290;2023-02-01T12:24:44;100906.42;;;10.58;87.69
28027;BME280;15344;52.342;-1.290;2023-02-01T12:27:13;100905.98;;;10.83;85.66
28027;BME280;15344;52.342;-1.290;2023-02-01T12:29:36;100903.71;;;10.97;85.02
28027;BME280;15344;52.342;-1.290;2023-02-01T12:32:05;100910.08;;;11.54;81.69
28027;BME280;15344;52.342;-1.290;2023-02-01T12:34:28;100906.95;;;10.77;84.91
28027;BME280;15344;52.342;-1.290;2023-02-01T12:36:49;100905.81;;;10.90;83.48
28027;BME280;15344;52.342;-1.290;2023-02-01T12:39:16;100902.93;;;11.03;84.66
28027;BME280;15344;52.342;-1.290;2023-02-01T12:41:45;100914.26;;;11.55;81.67
28027;BME280;15344;52.342;-1.290;2023-02-01T12:44:01;100909.76;;;11.12;84.22
28027;BME280;15344;52.342;-1.290;2023-02-01T12:46:29;100919.65;;;11.66;81.61
28027;BME280;15344;52.342;-1.290;2023-02-01T12:48:54;100915.17;;;11.83;82.75
28027;BME280;15344;52.342;-1.290;2023-02-01T12:51:18;100914.48;;;11.91;80.66
28027;BME280;15344;52.342;-1.290;2023-02-01T12:53:46;100913.46;;;11.00;83.60